Flight Track Log - Related Links

Times and Time Zones

All times are in EDT time to prevent confusion due to time zone crossing. See the N7485Y flight status page for this flight to view local times or setup timezone preferences in your user account.

Time Position Orientation Groundspeed Altitude Reporting Facility
EDT Latitude Longitude Course Direction KTS MPH feet Rate Location/Type
Tue 07:47:20 PM 36.7653 -108.2111 70° East 162 186 6,800  Level Denver Center
Tue 07:48:21 PM 36.7758 -108.1747 70° East 147 169 7,800 844 Climbing Denver Center
Tue 07:49:35 PM 36.7897 -108.1150 74° East 141 162 8,700 574 Climbing Denver Center
Tue 07:50:37 PM 36.8008 -108.0647 75° East 146 168 9,100 532 Climbing Denver Center
Tue 07:51:39 PM 36.8147 -107.9975 76° East 154 177 9,800 677 Climbing Denver Center
Tue 07:52:41 PM 36.8272 -107.9428 74° East 151 174 10,500 677 Climbing Denver Center
Tue 07:53:43 PM 36.8358 -107.8922 78° East 152 175 11,200 581 Climbing Denver Center
Tue 07:54:45 PM 36.8450 -107.8381 78° East 159 183 11,700 488 Climbing Denver Center
Tue 07:55:46 PM 36.8550 -107.7756 79° East 163 188 12,200 488 Climbing Denver Center
Tue 07:56:48 PM 36.8608 -107.7256 82° East 158 182 12,700 397 Climbing Denver Center
Tue 07:58:02 PM 36.8711 -107.6711 77° East 150 173 13,100 397 Climbing Denver Center
Tue 07:59:04 PM 36.8861 -107.6156 71° East 150 173 13,600 524 Climbing Denver Center
Tue 08:00:08 PM 36.9039 -107.5633 67° East 149 171 14,200 522 Climbing Denver Center
Tue 08:01:22 PM 36.9222 -107.5122 66° East 146 168 14,800 574 Climbing Denver Center
Tue 08:02:24 PM 36.9375 -107.4583 70° East 147 169 15,500 629 Climbing Denver Center
Tue 08:03:26 PM 36.9508 -107.4067 72° East 141 162 16,100 488 Climbing Denver Center
Tue 08:04:27 PM 36.9669 -107.3631 65° Northeast 143 165 16,500 293 Climbing Denver Center
Tue 08:05:29 PM 36.9900 -107.3131 60° Northeast 147 169 16,700 242 Climbing Denver Center
Tue 08:06:31 PM 37.0075 -107.2672 64° Northeast 151 174 17,000 194 Climbing Denver Center
Tue 08:07:33 PM 37.0186 -107.2175 74° East 153 176 17,100 49 Climbing Denver Center
Tue 08:08:34 PM 37.0372 -107.1553 69° East 166 191 17,100  Level Denver Center
Tue 08:09:36 PM 37.0475 -107.1067 75° East 175 201 17,100  Level Denver Center
Tue 08:10:37 PM 37.0589 -107.0500 76° East 176 203 17,100 49 Level Denver Center
Tue 08:11:39 PM 37.0778 -106.9756 72° East 176 203 17,200  Climbing Denver Center
Tue 08:12:41 PM 37.0856 -106.9069 82° East 176 203 17,100 -49 Descending Denver Center
Tue 08:13:42 PM 37.0922 -106.8469 82° East 177 204 17,100 -537 Level Denver Center
Tue 08:14:44 PM 37.1058 -106.7883 74° East 182 209 16,000  Descending Denver Center
Tue 08:15:46 PM 37.1294 -106.7219 66° East 186 214 17,100 585 Climbing Denver Center
Tue 08:16:47 PM 37.1483 -106.6633 68° East 188 216 17,200  Climbing Denver Center
Tue 08:17:49 PM 37.1619 -106.5917 77° East 188 216 17,100  Descending Denver Center
Tue 08:18:50 PM 37.1744 -106.5336 75° East 185 213 17,200  Climbing Denver Center
Tue 08:19:52 PM 37.1881 -106.4639 76° East 183 211 17,100 -97 Descending Denver Center
Tue 08:20:54 PM 37.2008 -106.4033 75° East 184 212 17,000 -49 Descending Denver Center
Tue 08:21:55 PM 37.2133 -106.3428 75° East 184 212 17,000 49 Level Denver Center
Tue 08:22:57 PM 37.2328 -106.2783 69° East 184 212 17,100 49 Climbing Denver Center
Tue 08:23:58 PM 37.2494 -106.2153 72° East 183 211 17,100  Level Denver Center
Tue 08:25:00 PM 37.2624 -106.1517 76° East  Level FlightAware Approximate
Tue 08:27:52 PM 37.3097 -106.0031 70° East 143 165 17,100  Level Denver Center
Tue 08:28:53 PM 37.3236 -105.9394 75° East 164 189 17,200  Climbing Denver Center
Tue 08:29:55 PM 37.3336 -105.8839 77° East 168 193 17,100 -49 Descending Denver Center
Tue 08:30:56 PM 37.3536 -105.8228 68° East 169 194 17,100  Level Denver Center
Tue 08:31:58 PM 37.3661 -105.7708 73° East 166 191 17,100  Level Denver Center
Tue 08:32:00 PM 37.3562 -105.7227 70° East  Level FlightAware Approximate
Tue 08:32:59 PM 37.3756 -105.7153 78° East 167 192 17,100  Level Denver Center
Tue 08:33:00 PM 37.3737 -105.6631 70° East  Level FlightAware Approximate
Tue 08:34:00 PM 37.3839 -105.6500 81° East 169 194 17,100  Level Denver Center
Tue 08:35:02 PM 37.3961 -105.5944 75° East 170 196 17,100  Level Denver Center
Tue 08:36:03 PM 37.4119 -105.5306 73° East 171 197 17,100  Level Denver Center
Tue 08:37:05 PM 37.4242 -105.4744 75° East 172 198 17,100  Level Denver Center
Tue 08:38:06 PM 37.4372 -105.4081 76° East 174 200 17,100  Level Denver Center
Tue 08:39:08 PM 37.4486 -105.3539 75° East 171 197 17,100  Level Denver Center
Tue 08:40:09 PM 37.4622 -105.2978 73° East 172 198 17,100  Level Denver Center
Tue 08:41:11 PM 37.4764 -105.2314 75° East 174 200 17,100  Level Denver Center
Tue 08:42:12 PM 37.4875 -105.1733 76° East 177 204 17,100  Level Denver Center
Tue 08:43:13 PM 37.5019 -105.1075 75° East 176 203 17,100 49 Level Denver Center
Tue 08:44:15 PM 37.5122 -105.0528 77° East 172 198 17,200  Climbing Denver Center
Tue 08:45:16 PM 37.5314 -104.9981 66° East 173 199 17,100 -49 Descending Denver Center
Tue 08:46:18 PM 37.5592 -104.9372 60° Northeast 176 203 17,100 48 Level Denver Center
Tue 08:47:20 PM 37.5781 -104.8842 66° East 174 200 17,200 44 Climbing Denver Center
Tue 08:48:33 PM 37.5986 -104.8153 69° East 182 209 17,200 -45 Level Denver Center
Tue 08:49:34 PM 37.6136 -104.7456 75° East 185 213 17,100  Descending Denver Center
Tue 08:50:36 PM 37.6258 -104.6794 77° East 178 205 17,200  Climbing Denver Center
Tue 08:51:37 PM 37.6356 -104.6306 76° East 178 205 17,100 -49 Descending Denver Center
Tue 08:52:39 PM 37.6508 -104.5658 73° East 175 201 17,100 49 Level Denver Center
Tue 08:53:40 PM 37.6708 -104.5167 63° Northeast 169 194 17,200 49 Climbing Denver Center
Tue 08:54:41 PM 37.7011 -104.4578 57° Northeast 172 198 17,200  Level Denver Center
Tue 08:55:43 PM 37.7314 -104.3978 57° Northeast 178 205 17,200 13,366 Level Denver Center
Tue 08:56:44 PM 37.7506 -104.3553 60° Northeast 178 205 44,600 -49 Climbing Denver Center
Tue 08:57:46 PM 37.7775 -104.2978 59° Northeast 173 199 17,100 -13,415 Descending Denver Center
Tue 08:58:47 PM 37.8003 -104.2489 59° Northeast 170 196 17,100 49 Level Denver Center
Tue 08:59:48 PM 37.8272 -104.1872 61° Northeast 173 199 17,200 -49 Climbing Denver Center
Tue 09:00:50 PM 37.8494 -104.1303 64° Northeast 180 207 17,000 -49 Descending Denver Center
Tue 09:01:51 PM 37.8767 -104.0669 61° Northeast 183 211 17,100 49 Climbing Denver Center
Tue 09:02:53 PM 37.9047 -104.0144 56° Northeast 184 212 17,100 -49 Level Denver Center
Tue 09:03:54 PM 37.9342 -103.9628 54° Northeast 186 214 17,000  Descending Denver Center
Tue 09:04:55 PM 37.9667 -103.9008 56° Northeast 188 216 17,100  Climbing Denver Center
Tue 09:05:57 PM 37.9947 -103.8469 57° Northeast 190 219 17,000 -49 Descending Denver Center
Tue 09:06:58 PM 38.0258 -103.7881 56° Northeast 183 211 17,000  Level Denver Center
Tue 09:07:59 PM 38.0508 -103.7400 57° Northeast 174 200 17,000  Level Denver Center
Tue 09:09:01 PM 38.0797 -103.6806 58° Northeast 176 203 17,000  Level Denver Center
Tue 09:10:02 PM 38.1033 -103.6297 59° Northeast 175 201 17,000  Level Denver Center
Tue 09:11:04 PM 38.1283 -103.5742 60° Northeast 185 213 17,000  Level Denver Center
Tue 09:12:05 PM 38.1567 -103.5117 60° Northeast 184 212 17,000  Level Denver Center
Tue 09:13:06 PM 38.1769 -103.4664 60° Northeast 184 212 17,000 49 Level Denver Center
Tue 09:14:08 PM 38.2092 -103.3917 61° Northeast 189 217 17,100  Climbing Denver Center
Tue 09:15:09 PM 38.2333 -103.3358 61° Northeast 188 216 17,000 -49 Descending Denver Center
Tue 09:16:11 PM 38.2569 -103.2792 62° Northeast 190 219 17,000  Level Denver Center
Tue 09:17:12 PM 38.2825 -103.2144 63° Northeast 186 214 17,000  Level Denver Center
Tue 09:18:14 PM 38.3058 -103.1736 54° Northeast 181 208 17,000  Level Denver Center
Tue 09:19:16 PM 38.3419 -103.1044 56° Northeast 183 211 17,000 49 Level Denver Center
Tue 09:20:17 PM 38.3683 -103.0528 57° Northeast 182 209 17,100  Climbing Denver Center
Tue 09:21:31 PM 38.3950 -103.0000 57° Northeast 184 212 17,000 -88 Descending Denver Center
Tue 09:22:33 PM 38.4264 -102.9306 60° Northeast 178 205 16,900  Descending Denver Center
Tue 09:23:34 PM 38.4492 -102.8819 59° Northeast 169 194 17,000 98 Climbing Denver Center
Tue 09:24:36 PM 38.4769 -102.8194 60° Northeast 178 205 17,100 49 Climbing Denver Center
Tue 09:25:37 PM 38.5008 -102.7669 60° Northeast 180 207 17,100  Level Denver Center
Tue 09:26:39 PM 38.5278 -102.7042 61° Northeast 180 207 17,100 -49 Level Denver Center
Tue 09:27:40 PM 38.5475 -102.6594 61° Northeast 181 208 17,000 49 Descending Denver Center
Tue 09:28:42 PM 38.5767 -102.5881 62° Northeast 178 205 17,200 97 Climbing Denver Center
Tue 09:29:44 PM 38.5989 -102.5333 63° Northeast 179 206 17,200  Level Denver Center
Tue 09:30:46 PM 38.6183 -102.4814 64° Northeast 177 204 17,200  Level Denver Center
Tue 09:31:47 PM 38.6428 -102.4175 64° Northeast 176 203 17,200  Level Denver Center
Tue 09:32:49 PM 38.6617 -102.3744 61° Northeast 176 203 17,200  Level Denver Center
Tue 09:33:51 PM 38.6950 -102.3069 58° Northeast 175 201 17,200  Level Denver Center
Tue 09:34:52 PM 38.7158 -102.2647 58° Northeast 175 201 17,200  Level Denver Center
Tue 09:35:54 PM 38.7478 -102.1953 59° Northeast 176 203 17,200  Level Denver Center
Tue 09:36:56 PM 38.7717 -102.1442 59° Northeast 176 203 17,200  Level Denver Center
Tue 09:37:57 PM 38.7944 -102.0933 60° Northeast 174 200 17,200  Level Denver Center
Tue 09:38:59 PM 38.8211 -102.0294 62° Northeast 178 205 17,200  Level Denver Center
Tue 09:40:01 PM 38.8428 -101.9761 62° Northeast 177 204 17,200  Level Denver Center
Tue 09:41:03 PM 38.8731 -101.9150 58° Northeast 183 211 17,200 49 Level Denver Center
Tue 09:42:04 PM 38.9022 -101.8642 54° Northeast 185 213 17,300  Climbing Denver Center
Tue 09:43:06 PM 38.9339 -101.8042 56° Northeast 183 211 17,200 -48 Descending Denver Center
Tue 09:44:08 PM 38.9608 -101.7528 56° Northeast 182 209 17,200 44 Level Denver Center
Tue 09:45:22 PM 38.9967 -101.6814 57° Northeast 185 213 17,300 41 Climbing Denver Center
Tue 09:46:35 PM 39.0222 -101.6258 59° Northeast 188 216 17,300 -44 Level Denver Center
Tue 09:47:37 PM 39.0547 -101.5578 58° Northeast 183 211 17,200 -48 Descending Denver Center
Tue 09:48:39 PM 39.0828 -101.4944 60° Northeast 182 209 17,200  Level Denver Center
Tue 09:49:41 PM 39.1078 -101.4400 59° Northeast 182 209 17,200  Level Denver Center
Tue 09:50:42 PM 39.1347 -101.3758 62° Northeast 183 211 17,200  Level Denver Center
Tue 09:51:44 PM 39.1586 -101.3203 61° Northeast 185 213 17,200  Level Denver Center
Tue 09:52:46 PM 39.1817 -101.2639 62° Northeast 185 213 17,200  Level Denver Center
Tue 09:53:47 PM 39.2081 -101.1986 62° Northeast 183 211 17,200  Level Denver Center
Tue 09:54:49 PM 39.2297 -101.1436 63° Northeast 182 209 17,200  Level Denver Center
Tue 09:55:51 PM 39.2547 -101.0772 64° Northeast 184 212 17,200  Level Denver Center
Tue 09:57:04 PM 39.2789 -101.0094 65° Northeast 186 214 17,200  Level Denver Center
Tue 09:58:06 PM 39.3111 -100.9486 56° Northeast 185 213 17,200  Level Denver Center
Tue 09:59:08 PM 39.3389 -100.8944 56° Northeast 188 216 17,200  Level Denver Center
Tue 10:00:21 PM 39.3706 -100.8306 57° Northeast 187 215 17,200  Level Denver Center
Tue 10:01:23 PM 39.4017 -100.7683 57° Northeast 185 213 17,200  Level Denver Center
Tue 10:02:25 PM 39.4317 -100.7036 59° Northeast 186 214 17,200  Level Denver Center
Tue 10:03:26 PM 39.4575 -100.6483 59° Northeast 187 215 17,200  Level Denver Center
Tue 10:04:28 PM 39.4858 -100.5833 61° Northeast 185 213 17,200  Level Denver Center
Tue 10:05:30 PM 39.5094 -100.5264 62° Northeast 186 214 17,200  Level Denver Center
Tue 10:06:31 PM 39.5369 -100.4608 61° Northeast 185 213 17,200  Level Denver Center
Tue 10:07:33 PM 39.5586 -100.4050 63° Northeast 183 211 17,200  Level Denver Center
Tue 10:08:34 PM 39.5803 -100.3469 64° Northeast 186 214 17,200  Level Denver Center
Tue 10:09:36 PM 39.6047 -100.2811 64° Northeast 183 211 17,200  Level Denver Center
Tue 10:10:37 PM 39.6311 -100.2261 58° Northeast 188 216 17,200  Level Denver Center
Tue 10:12:40 PM 39.6878 -100.1094 58° Northeast 187 215 17,200  Level Denver Center
Tue 10:13:42 PM 39.7164 -100.0456 60° Northeast 184 212 17,200  Level Denver Center
Tue 10:14:43 PM 39.7414 -99.9878 61° Northeast 189 217 17,200  Level Denver Center
Tue 10:15:45 PM 39.7636 -99.9344 62° Northeast 188 216 17,200  Level Denver Center
Tue 10:18:42 PM 39.8344 -99.7525 63° Northeast 188 216 17,200  Level Minneapolis Center
Tue 10:19:43 PM 39.8567 -99.6931 64° Northeast 187 215 17,200  Level Minneapolis Center
Tue 10:20:44 PM 39.8786 -99.6294 66° East 188 216 17,200  Level Minneapolis Center
Tue 10:21:45 PM 39.9028 -99.5700 62° Northeast 189 217 17,200  Level Minneapolis Center
Tue 10:22:55 PM 39.9356 -99.5000 59° Northeast 188 216 17,200  Level Denver Center
Tue 10:23:56 PM 39.9619 -99.4417 59° Northeast 187 215 17,200  Level Denver Center
Tue 10:24:57 PM 39.9906 -99.3878 55° Northeast 182 209 17,200  Level Denver Center
Tue 10:25:59 PM 40.0231 -99.3200 58° Northeast 183 211 17,200  Level Denver Center
Tue 10:27:00 PM 40.0500 -99.2642 58° Northeast 181 208 17,200  Level Denver Center
Tue 10:28:02 PM 40.0778 -99.2050 58° Northeast 188 216 17,200  Level Denver Center
Tue 10:29:03 PM 40.1033 -99.1478 60° Northeast 185 213 17,200  Level Denver Center
Tue 10:30:04 PM 40.1292 -99.0878 61° Northeast 188 216 17,200  Level Denver Center
Tue 10:31:06 PM 40.1522 -99.0300 62° Northeast 183 211 17,200  Level Denver Center
Tue 10:32:07 PM 40.1767 -98.9714 61° Northeast 184 212 17,200  Level Denver Center
Tue 10:33:08 PM 40.2014 -98.9128 61° Northeast 184 212 17,200  Level Denver Center
Tue 10:34:10 PM 40.2239 -98.8553 63° Northeast 181 208 17,200  Level Denver Center
Tue 10:35:11 PM 40.2525 -98.7831 63° Northeast 184 212 17,200  Level Denver Center
Tue 10:36:12 PM 40.2750 -98.7231 64° Northeast 184 212 17,200 49 Level Denver Center
Tue 10:37:13 PM 40.3042 -98.6689 55° Northeast 183 211 17,300  Climbing Denver Center
Tue 10:38:15 PM 40.3308 -98.6114 59° Northeast 186 214 17,200 -49 Descending Denver Center
Tue 10:39:16 PM 40.3567 -98.5533 60° Northeast 184 212 17,200  Level Denver Center
Tue 10:40:27 PM 40.3881 -98.4864 58° Northeast 182 209 17,200  Level Minneapolis Center
Tue 10:41:27 PM 40.4125 -98.4281 61° Northeast 182 209 17,200  Level Minneapolis Center
Tue 10:42:28 PM 40.4381 -98.3669 61° Northeast 187 215 17,200  Level Minneapolis Center
Tue 10:43:29 PM 40.4642 -98.3050 61° Northeast 192 221 17,200  Level Minneapolis Center
Tue 10:44:30 PM 40.4872 -98.2433 64° Northeast 191 220 17,200  Level Minneapolis Center
Tue 10:45:31 PM 40.5156 -98.1856 57° Northeast 188 216 17,200 49 Level Minneapolis Center
Tue 10:46:32 PM 40.5433 -98.1275 58° Northeast 188 216 17,300  Climbing Minneapolis Center
Tue 10:47:45 PM 40.5714 -98.0664 59° Northeast 193 222 17,200 -45 Descending Minneapolis Center
Tue 10:48:46 PM 40.6019 -97.9953 60° Northeast 188 216 17,200  Level Minneapolis Center
Tue 10:49:47 PM 40.6267 -97.9356 61° Northeast 187 215 17,200  Level Minneapolis Center
Tue 10:50:47 PM 40.6503 -97.8625 67° East 183 211 17,200  Level Minneapolis Center
Tue 10:51:48 PM 40.6681 -97.7986 70° East 185 213 17,200  Level Minneapolis Center
Tue 10:53:00 PM 40.7252 -97.7960 61° Northeast  Level FlightAware Approximate
Tue 10:53:50 PM 40.6850 -97.6653 61° Northeast 186 214 17,200  Level Minneapolis Center
Tue 10:54:51 PM 40.7003 -97.5964 74° East 192 221 16,600 -590 Descending Minneapolis Center
Tue 10:55:52 PM 40.7181 -97.5194 73° East 213 245 16,000 -689 Descending Minneapolis Center
Tue 10:56:53 PM 40.7411 -97.4458 68° East 216 249 15,200 -738 Descending Minneapolis Center
Tue 10:57:54 PM 40.7622 -97.3722 69° East 217 250 14,500 -765 Descending Minneapolis Center
Tue 10:58:35 PM 40.7594 -97.3122 93° East 210 242 13,900 -787 Descending Minneapolis Center
Tue 10:58:55 PM 40.7889 -97.2981 20° North 209 241 13,700 -806 Descending Minneapolis Center
Tue 10:59:42 PM 40.7931 -97.2375 85° East 205 236 13,000 -787 Descending Minneapolis Center
Tue 11:00:57 PM 40.8356 -97.1600 54° Northeast 206 237 12,100 -709 Descending Minneapolis Center
Tue 11:01:49 PM 40.8372 -97.0928 88° East 201 231 11,500 -750 Descending Minneapolis Center
Tue 11:02:49 PM 40.8647 -97.0269 61° Northeast 198 228 10,700 -793 Descending Minneapolis Center
Tue 11:03:50 PM 40.8947 -96.9661 57° Northeast 200 230 9,900 -750 Descending Minneapolis Center
Tue 11:04:57 PM 40.9333 -96.9100 48° Northeast 189 217 9,100 -756 Descending Minneapolis Center
Tue 11:05:57 PM 40.9700 -96.8567 48° Northeast 185 213 8,300 -744 Descending Minneapolis Center
Tue 11:06:58 PM 41.0069 -96.8058 46° Northeast 187 215 7,600 -689 Descending Minneapolis Center
Tue 11:07:59 PM 41.0417 -96.7608 44° Northeast 175 201 6,900 -524 Descending Minneapolis Center
Tue 11:09:04 PM 41.0831 -96.7192 37° Northeast 174 200 6,500 -298 Descending Minneapolis Center
Tue 11:10:00 PM 41.1056 -96.6742 56° Northeast 159 183 6,300 -207 Descending Minneapolis Center
Tue 11:11:00 PM 41.1344 -96.6325 47° Northeast 157 181 6,100 -248 Descending Minneapolis Center
Tue 11:12:01 PM 41.1653 -96.5878 48° Northeast 153 176 5,800 -393 Descending Minneapolis Center
Tue 11:13:02 PM 41.1919 -96.5433 51° Northeast 156 180 5,300 -347 Descending Minneapolis Center
Tue 11:14:02 PM 41.2186 -96.4992 51° Northeast 154 177 5,100 -189 Descending Minneapolis Center
Tue 11:15:09 PM 41.2428 -96.4494 57° Northeast 141 162 4,900 -248 Descending Minneapolis Center
Tue 11:16:03 PM 41.2633 -96.4111 54° Northeast 145 167 4,600 -365 Descending Minneapolis Center
Tue 11:17:04 PM 41.2856 -96.3672 56° Northeast 136 157 4,200 -279 Descending Minneapolis Center
Tue 11:18:12 PM 41.3061 -96.3261 56° Northeast 128 147 4,000 -378 Descending Minneapolis Center
Tue 11:19:11 PM 41.3244 -96.2825 61° Northeast 129 148 3,400 -600 Descending Minneapolis Center
Tue 11:20:12 PM 41.3406 -96.2419 62° Northeast 121 139 2,800 -480 Descending Minneapolis Center
Tue 11:21:16 PM 41.3653 -96.1950 55° Northeast 125 144 2,400 -375 Descending Minneapolis Center

Login

Don't have an account? Register now (free) for customized features, flight alerts, and more!